createdAt,value
2022-09-22T00:02:31.169Z,43.10
2022-09-22T00:07:36.022Z,43.10
2022-09-22T00:12:39.220Z,43.10
2022-09-22T00:17:42.783Z,43.00
2022-09-22T00:22:50.822Z,43.00
2022-09-22T00:27:54.536Z,43.10
2022-09-22T00:32:58.103Z,43.00
2022-09-22T00:38:02.727Z,43.10
2022-09-22T00:43:16.752Z,43.20
2022-09-22T00:48:22.514Z,43.60
2022-09-22T00:53:28.055Z,43.50
2022-09-22T00:58:34.664Z,43.60
2022-09-22T01:03:39.263Z,43.70
2022-09-22T01:08:45.482Z,43.70
2022-09-22T01:13:56.403Z,43.90
2022-09-22T01:19:21.461Z,44.00
2022-09-22T01:24:56.913Z,44.20
2022-09-22T01:30:46.385Z,44.20
2022-09-22T01:36:01.065Z,44.30
2022-09-22T01:41:08.954Z,44.20
2022-09-22T01:46:19.263Z,44.10
2022-09-22T01:51:27.261Z,44.20
2022-09-22T01:56:34.304Z,44.20
2022-09-22T02:01:42.502Z,44.30
2022-09-22T02:06:50.459Z,44.30
2022-09-22T02:11:53.833Z,44.20
2022-09-22T02:16:59.156Z,44.20
2022-09-22T02:22:02.446Z,44.30
2022-09-22T02:27:08.372Z,44.30
2022-09-22T02:32:16.257Z,44.40
2022-09-22T02:37:25.395Z,44.50
2022-09-22T02:42:31.730Z,44.60
2022-09-22T02:47:41.758Z,44.60
2022-09-22T02:52:45.229Z,44.70
2022-09-22T02:57:48.805Z,44.60
2022-09-22T03:02:53.355Z,44.60
2022-09-22T03:07:56.733Z,44.70
2022-09-22T04:08:46.985Z,45.70
2022-09-22T04:13:50.237Z,45.20
2022-09-22T04:18:53.585Z,45.10
2022-09-22T04:23:58.232Z,45.10
2022-09-22T04:29:01.680Z,45.20
2022-09-22T04:34:07.598Z,45.10
2022-09-22T04:39:12.533Z,45.10
2022-09-22T04:44:16.169Z,46.20
2022-09-22T04:49:19.605Z,45.60
2022-09-22T04:54:24.238Z,45.50
2022-09-22T04:59:27.661Z,45.40
2022-09-22T05:04:31.338Z,45.50
2022-09-22T05:09:36.021Z,47.50
2022-09-22T05:14:39.580Z,47.40
2022-09-22T05:19:42.791Z,46.60
2022-09-22T05:24:47.498Z,46.20
2022-09-22T05:29:50.815Z,46.10
2022-09-22T05:34:54.313Z,46.00
2022-09-22T05:39:58.939Z,46.00
2022-09-22T06:20:43.810Z,46.10
2022-09-22T06:25:47.155Z,46.10
2022-09-22T06:36:56.168Z,46.00
2022-09-22T06:42:01.222Z,46.10
2022-09-22T06:47:06.368Z,46.00
2022-09-22T06:52:15.082Z,46.00
2022-09-22T06:57:19.164Z,46.10
2022-09-22T07:02:23.293Z,46.00
2022-09-22T07:07:29.808Z,46.00
2022-09-22T07:12:34.172Z,46.10
2022-09-22T07:17:37.375Z,46.00
2022-09-22T07:22:42.084Z,46.10
2022-09-22T07:27:45.304Z,46.20
2022-09-22T07:32:48.537Z,46.20
2022-09-22T07:38:00.905Z,46.20
2022-09-22T07:43:04.113Z,46.20
2022-09-22T07:48:24.807Z,46.20
2022-09-22T07:53:29.432Z,46.10
2022-09-22T07:58:32.752Z,46.20
2022-09-22T08:03:38.402Z,46.20
2022-09-22T08:08:46.331Z,46.00
2022-09-22T08:13:53.771Z,46.10
2022-09-22T08:18:58.719Z,46.20
2022-09-22T08:24:03.888Z,46.20
2022-09-22T08:29:08.285Z,46.20
2022-09-22T08:34:11.648Z,46.10
2022-09-22T08:39:17.921Z,46.10
2022-09-22T08:44:26.316Z,46.80
2022-09-22T08:49:52.295Z,45.80
2022-09-22T08:54:59.889Z,45.60
2022-09-22T09:00:06.995Z,45.40
2022-09-22T09:06:01.484Z,45.30
2022-09-22T09:11:15.940Z,45.00
2022-09-22T09:16:35.624Z,45.10
2022-09-22T09:21:44.990Z,45.10
2022-09-22T09:26:52.519Z,45.00
2022-09-22T09:31:58.562Z,44.70
2022-09-22T09:37:08.315Z,44.70
2022-09-22T09:42:21.324Z,44.30
2022-09-22T09:47:47.286Z,44.00
2022-09-22T09:52:50.496Z,43.70
2022-09-22T09:58:07.036Z,44.40
2022-09-22T10:03:17.785Z,43.00
2022-09-22T10:08:23.654Z,42.80
2022-09-22T10:13:33.695Z,42.50
2022-09-22T10:18:40.582Z,41.70
2022-09-22T10:23:45.224Z,41.70
2022-09-22T10:29:08.500Z,41.70
2022-09-22T10:34:31.985Z,40.40
2022-09-22T10:39:42.110Z,41.30
2022-09-22T10:44:48.974Z,40.80
2022-09-22T10:50:25.567Z,41.00
2022-09-22T10:55:31.508Z,40.60
2022-09-22T11:00:39.151Z,41.10
2022-09-22T11:06:13.527Z,40.70
2022-09-22T11:11:40.432Z,40.20
2022-09-22T11:17:04.330Z,39.90
2022-09-22T11:22:24.881Z,39.30
2022-09-22T11:27:42.238Z,39.10
2022-09-22T11:39:03.358Z,39.30
2022-09-22T11:44:31.255Z,40.10
2022-09-22T11:49:47.716Z,40.00
2022-09-22T11:55:09.088Z,39.60
2022-09-22T12:00:17.484Z,38.90
2022-09-22T12:05:27.111Z,38.90
2022-09-22T12:10:35.796Z,38.60
2022-09-22T12:15:52.356Z,38.60
2022-09-22T12:21:01.686Z,38.60
2022-09-22T12:26:08.157Z,39.10
2022-09-22T12:31:15.464Z,39.40
2022-09-22T12:36:20.186Z,39.10
2022-09-22T12:41:23.411Z,39.10
2022-09-22T12:46:29.992Z,38.60
2022-09-22T12:51:34.633Z,37.70
2022-09-22T12:56:46.617Z,37.80
2022-09-22T13:02:29.713Z,36.60
2022-09-22T13:07:36.659Z,36.10
2022-09-22T13:12:40.142Z,37.00
2022-09-22T13:17:46.194Z,36.60
2022-09-22T13:22:51.214Z,36.00
2022-09-22T13:28:13.973Z,36.30
2022-09-22T13:33:24.124Z,35.30
2022-09-22T13:38:27.463Z,35.60
2022-09-22T13:43:34.907Z,36.30
2022-09-22T13:48:39.705Z,36.20
2022-09-22T13:53:48.140Z,36.40
2022-09-22T13:58:55.534Z,36.10
2022-09-22T14:04:00.326Z,36.30
2022-09-22T14:09:04.816Z,36.30
2022-09-22T14:14:22.192Z,36.40
2022-09-22T14:19:33.280Z,36.70
2022-09-22T14:24:38.169Z,36.30
2022-09-22T14:29:41.818Z,36.70
2022-09-22T14:34:50.411Z,36.40
2022-09-22T14:39:55.228Z,36.10
2022-09-22T14:45:22.310Z,36.80
2022-09-22T14:50:40.132Z,36.90
2022-09-22T14:55:46.603Z,38.00
2022-09-22T15:01:13.172Z,37.80
2022-09-22T15:06:17.941Z,37.80
2022-09-22T15:11:21.406Z,37.80
2022-09-22T15:16:38.223Z,38.00
2022-09-22T15:21:46.382Z,37.70
2022-09-22T15:26:49.669Z,37.90
2022-09-22T15:31:53.112Z,38.10
2022-09-22T15:36:57.789Z,38.00
2022-09-22T15:42:01.263Z,38.20
2022-09-22T15:47:04.965Z,38.10
2022-09-22T15:52:10.763Z,38.10
2022-09-22T15:57:14.970Z,38.10
2022-09-22T16:02:18.423Z,38.20
2022-09-22T16:07:23.373Z,38.10
2022-09-22T16:12:27.640Z,37.90
2022-09-22T16:17:30.946Z,37.90
2022-09-22T16:22:36.460Z,38.00
2022-09-22T16:27:39.977Z,37.80
2022-09-22T16:32:43.631Z,37.90
2022-09-22T16:37:48.369Z,37.90
2022-09-22T16:42:51.993Z,38.10
2022-09-22T16:47:55.311Z,38.20
2022-09-22T16:52:59.850Z,39.10
2022-09-22T16:58:03.622Z,38.70
2022-09-22T17:03:06.795Z,38.90
2022-09-22T17:08:11.575Z,39.10
2022-09-22T17:13:18.196Z,39.10
2022-09-22T17:18:22.055Z,39.10
2022-09-22T17:23:26.924Z,39.20
2022-09-22T17:28:30.582Z,39.30
2022-09-22T17:33:34.572Z,39.60
2022-09-22T17:38:40.235Z,39.60
2022-09-22T17:43:43.612Z,39.50
2022-09-22T17:49:04.446Z,39.50
2022-09-22T17:54:36.723Z,39.60
2022-09-22T17:59:40.925Z,39.60
2022-09-22T18:04:45.596Z,39.60
2022-09-22T18:09:51.954Z,39.80
2022-09-22T18:14:56.564Z,39.90
2022-09-22T18:20:00.963Z,39.80
2022-09-22T18:25:08.980Z,40.60
2022-09-22T18:30:16.021Z,40.20
2022-09-22T18:35:20.191Z,40.40
2022-09-22T18:40:25.495Z,40.50
2022-09-22T18:45:28.846Z,44.80
2022-09-22T18:50:34.631Z,42.60
2022-09-22T18:55:39.436Z,41.70
2022-09-22T19:00:42.712Z,41.20
2022-09-22T19:05:46.174Z,40.90
2022-09-22T19:10:51.441Z,40.70
2022-09-22T19:15:57.945Z,40.60
2022-09-22T19:21:04.056Z,40.50
2022-09-22T19:26:10.733Z,40.40
2022-09-22T19:31:15.385Z,40.40
2022-09-22T19:36:18.811Z,40.40
2022-09-22T19:41:24.209Z,40.50
2022-09-22T19:46:27.582Z,40.50
2022-09-22T19:51:30.771Z,40.60
2022-09-22T19:56:35.349Z,40.70
2022-09-22T20:01:41.291Z,40.90
2022-09-22T20:06:44.690Z,40.90
2022-09-22T20:11:52.360Z,41.00
2022-09-22T20:16:57.264Z,41.10
2022-09-22T20:22:21.336Z,41.10
2022-09-22T20:27:29.263Z,41.50
2022-09-22T20:32:33.100Z,41.30
2022-09-22T20:37:36.555Z,41.90
2022-09-22T20:42:41.699Z,41.30
2022-09-22T20:47:44.898Z,41.40
2022-09-22T20:52:48.096Z,41.40
2022-09-22T20:57:53.012Z,41.50
2022-09-22T21:03:00.320Z,41.60
2022-09-22T21:08:17.829Z,41.60
2022-09-22T21:13:22.541Z,41.70
2022-09-22T21:18:26.636Z,41.90
2022-09-22T21:23:30.121Z,41.90
2022-09-22T21:28:35.000Z,42.00
2022-09-22T21:33:38.496Z,42.10
2022-09-22T21:38:42.159Z,42.10
2022-09-22T21:43:47.488Z,42.10
2022-09-22T21:48:50.687Z,42.30
2022-09-22T21:53:55.048Z,42.20
2022-09-22T21:58:59.562Z,42.30
2022-09-22T22:04:08.011Z,43.10
2022-09-22T22:09:17.214Z,42.40
2022-09-22T22:14:22.843Z,42.80
2022-09-22T22:19:27.137Z,42.70
2022-09-22T22:24:36.163Z,43.30
2022-09-22T22:29:41.062Z,42.70
2022-09-22T22:34:44.254Z,42.80
2022-09-22T22:39:47.785Z,42.90
2022-09-22T22:44:52.381Z,42.90
2022-09-22T22:49:55.503Z,43.10
2022-09-22T22:54:58.663Z,43.10
2022-09-22T23:00:03.525Z,43.10
2022-09-22T23:05:07.872Z,43.30
2022-09-22T23:10:11.384Z,43.30
2022-09-22T23:15:16.398Z,43.30
2022-09-22T23:20:20.253Z,43.60
2022-09-22T23:25:23.876Z,43.50
2022-09-22T23:30:28.911Z,43.60
2022-09-22T23:35:32.116Z,43.80
2022-09-22T23:40:35.416Z,43.70
2022-09-22T23:45:40.612Z,43.80
2022-09-22T23:50:47.993Z,43.90
2022-09-22T23:55:51.524Z,44.20
